Pueblo, Kentucky
Current Conditions -  °F | °C
As of 2:56 PM on Thursday 29 Jan 2015 (Local Time) from KEKQ Reporting Station
Scattered Clouds Scattered Clouds  
Wind Chill: 61°   Ceiling: Unl
Heat Index: 61°   Visibility: 10mi
Dew Point: 40°   Wind: 16mph
Humidity: 46%   Direction: 240°WSW
Pressure: 29.98"   Gusts: 23mph
Location:  36.8129°N, 84.8215°W
Report Text: KEKQ 291956Z AUTO 24014G20KT 10SM SCT049 16/04 A2998 RMK AO2 T01610044 PK WND 25026/1924 SLP155
Loading
Personal Weather Stations






























Interactive Weather Map New forecast layout! Learn more

10-Day Weather Forecast

Advertisements
Track Severe Weather on mobile